Time;durP1;ratioP1;P1;durP2;ratioP2;P2;SDS_P1;SDS_P2;PMS_P1;PMS_P2;Temp;Humidity;BMP_temperature;BMP_pressure;BME280_temperature;BME280_humidity;BME280_pressure;Samples;Min_cycle;Max_cycle;Signal;HPM_P1;HPM_P2
2022/01/28 00:01:42;;;;;;;18.88;2.53;;;5.20;99.90;;;;;;4856508;29;20040;-66
2022/01/28 00:04:13;;;;;;;9.80;1.85;;;5.20;99.90;;;;;;4853468;29;20082;-66
2022/01/28 00:06:39;;;;;;;15.95;1.83;;;5.20;99.90;;;;;;4855865;29;20033;-65
2022/01/28 00:09:04;;;;;;;11.18;1.83;;;5.20;99.90;;;;;;4856972;29;20025;-65
2022/01/28 00:11:30;;;;;;;10.70;2.00;;;5.20;99.90;;;;;;4859951;29;20076;-65
2022/01/28 00:14:07;;;;;;;12.95;1.88;;;5.20;99.90;;;;;;4858446;29;20029;-65
2022/01/28 00:38:44;;;;;;;16.52;2.17;;;5.10;99.90;;;;;;4858138;29;20046;-65
2022/01/28 00:41:09;;;;;;;12.05;1.85;;;5.10;99.90;;;;;;4859252;29;20041;-65
2022/01/28 00:43:35;;;;;;;17.63;2.33;;;5.00;99.90;;;;;;4857528;29;20044;-65
2022/01/28 00:46:00;;;;;;;17.50;2.38;;;5.00;99.90;;;;;;4854185;29;20060;-65
2022/01/28 00:48:26;;;;;;;19.95;2.58;;;5.00;99.90;;;;;;4851212;29;20189;-65
2022/01/28 00:50:51;;;;;;;23.25;3.03;;;4.90;99.90;;;;;;4849107;29;20132;-64
2022/01/28 00:53:16;;;;;;;14.63;1.95;;;5.00;99.90;;;;;;4855336;29;20445;-66
2022/01/28 00:55:42;;;;;;;23.67;3.70;;;5.00;99.90;;;;;;4864533;29;20037;-64
2022/01/28 00:58:07;;;;;;;21.92;2.95;;;5.00;99.90;;;;;;4862155;29;20485;-65
2022/01/28 01:00:33;;;;;;;16.02;2.25;;;4.90;99.90;;;;;;4861781;29;20037;-63
2022/01/28 01:02:58;;;;;;;20.58;2.60;;;4.90;99.90;;;;;;4861977;29;20033;-67
2022/01/28 01:05:24;;;;;;;14.82;4.47;;;4.80;99.90;;;;;;4863821;29;21027;-65
2022/01/28 01:07:49;;;;;;;19.35;2.25;;;4.80;99.90;;;;;;4864591;29;20033;-65
2022/01/28 01:10:15;;;;;;;26.50;2.60;;;4.80;99.90;;;;;;4862231;29;20040;-64
2022/01/28 01:12:44;;;;;;;17.90;2.95;;;4.70;99.90;;;;;;4859237;29;20037;-64
2022/01/28 01:15:10;;;;;;;15.10;2.10;;;4.70;99.90;;;;;;4840350;29;20064;-66
2022/01/28 01:17:42;;;;;;;20.83;2.47;;;4.60;99.90;;;;;;4861633;29;20493;-66
2022/01/28 01:23:12;;;;;;;25.55;2.58;;;4.60;99.90;;;;;;4843722;29;20576;-65
2022/01/28 01:28:10;;;;;;;19.77;2.53;;;4.70;99.90;;;;;;4861412;29;20379;-66
2022/01/28 01:30:40;;;;;;;21.45;2.67;;;4.70;99.90;;;;;;4863797;29;20033;-66
2022/01/28 01:33:05;;;;;;;23.02;2.30;;;4.70;99.90;;;;;;4864710;29;20036;-65
2022/01/28 01:35:32;;;;;;;17.73;2.50;;;4.70;99.90;;;;;;4863686;29;20033;-66
2022/01/28 01:37:58;;;;;;;21.50;1.95;;;4.60;99.90;;;;;;4866848;29;20029;-64
2022/01/28 01:40:29;;;;;;;18.65;2.50;;;4.60;99.90;;;;;;4856924;29;20682;-68
2022/01/28 01:43:07;;;;;;;13.38;3.25;;;4.60;99.90;;;;;;4855059;29;20119;-65
2022/01/28 01:53:27;;;;;;;26.17;3.05;;;4.20;99.90;;;;;;4862310;29;20033;-67
2022/01/28 01:55:53;;;;;;;36.33;3.60;;;4.30;99.90;;;;;;4858839;29;20738;-66
2022/01/28 01:58:20;;;;;;;24.77;2.60;;;4.30;99.90;;;;;;4856020;29;20048;-66
2022/01/28 02:00:45;;;;;;;22.52;3.38;;;4.40;99.90;;;;;;4865361;29;20725;-67
2022/01/28 02:03:11;;;;;;;13.55;1.88;;;4.40;99.90;;;;;;4864490;29;20038;-66
2022/01/28 02:05:37;;;;;;;19.45;2.00;;;4.50;99.90;;;;;;4859273;29;20555;-65
2022/01/28 02:08:06;;;;;;;18.23;2.03;;;4.50;99.90;;;;;;4842103;29;20533;-67
2022/01/28 02:10:32;;;;;;;22.85;3.35;;;4.50;99.90;;;;;;4860054;29;20041;-66
2022/01/28 02:12:58;;;;;;;18.30;2.65;;;4.50;99.90;;;;;;4859394;29;20166;-66
2022/01/28 02:15:24;;;;;;;20.30;2.83;;;4.50;99.90;;;;;;4859219;29;20120;-66
2022/01/28 02:17:49;;;;;;;28.65;3.08;;;4.50;99.90;;;;;;4864158;29;20029;-67
2022/01/28 02:20:15;;;;;;;28.25;2.88;;;4.50;99.90;;;;;;4860821;29;20033;-67
2022/01/28 02:22:40;;;;;;;22.35;3.10;;;4.60;99.90;;;;;;4862787;29;20144;-67
2022/01/28 02:25:06;;;;;;;21.98;2.35;;;4.60;99.90;;;;;;4856793;29;20084;-67
2022/01/28 02:27:32;;;;;;;17.88;3.67;;;4.70;99.90;;;;;;4854837;29;20032;-67
2022/01/28 02:29:57;;;;;;;22.95;3.15;;;4.80;99.90;;;;;;4851155;29;20462;-66
2022/01/28 02:32:26;;;;;;;11.13;1.95;;;4.80;99.90;;;;;;4860501;29;20177;-66
2022/01/28 02:34:52;;;;;;;13.80;2.65;;;4.70;99.90;;;;;;4861232;29;20761;-65
2022/01/28 02:37:17;;;;;;;17.83;2.88;;;4.50;99.90;;;;;;4843198;29;20032;-67
2022/01/28 02:39:43;;;;;;;26.25;3.67;;;4.70;99.90;;;;;;4862263;29;20069;-66
2022/01/28 02:42:18;;;;;;;22.67;3.05;;;4.70;99.90;;;;;;4859975;29;20534;-65
2022/01/28 02:44:54;;;;;;;19.05;2.38;;;4.70;99.90;;;;;;4863784;29;20036;-66
2022/01/28 02:47:31;;;;;;;19.92;3.90;;;4.70;99.90;;;;;;4859779;29;20900;-66
2022/01/28 02:49:56;;;;;;;18.50;2.28;;;4.70;99.90;;;;;;4858400;29;20033;-67
2022/01/28 02:52:31;;;;;;;15.18;2.28;;;4.70;99.90;;;;;;4855614;29;20192;-67
2022/01/28 02:54:56;;;;;;;19.88;3.53;;;4.70;99.90;;;;;;4872535;29;20062;-65
2022/01/28 02:57:25;;;;;;;17.55;2.85;;;4.70;99.90;;;;;;4857921;29;20669;-66
2022/01/28 02:59:51;;;;;;;35.55;6.15;;;4.70;99.90;;;;;;4858354;29;20037;-66
2022/01/28 03:02:17;;;;;;;16.50;4.22;;;4.70;99.90;;;;;;4864121;29;20055;-66
2022/01/28 03:07:11;;;;;;;16.60;2.67;;;4.70;99.90;;;;;;4861996;29;20055;-66
2022/01/28 03:09:50;;;;;;;14.52;2.50;;;4.80;99.90;;;;;;4863151;29;20113;-66
2022/01/28 07:11:02;;;;;;;24.42;3.50;;;4.90;99.90;;;;;;4872273;29;20055;-65
2022/01/28 07:13:27;;;;;;;39.80;9.23;;;4.90;99.90;;;;;;4882807;29;20044;-65
2022/01/28 07:15:53;;;;;;;26.15;3.15;;;4.80;99.90;;;;;;4870195;29;20028;-65
2022/01/28 07:18:18;;;;;;;25.13;3.42;;;4.80;99.90;;;;;;4885011;29;20507;-65
2022/01/28 07:20:44;;;;;;;25.08;3.85;;;4.80;99.90;;;;;;4895807;29;20499;-65
2022/01/28 07:23:10;;;;;;;29.27;2.92;;;4.80;99.90;;;;;;4893895;29;20040;-64
2022/01/28 07:25:35;;;;;;;28.13;3.63;;;4.80;99.90;;;;;;4902290;29;20064;-64
2022/01/28 07:28:01;;;;;;;33.00;3.20;;;4.80;99.90;;;;;;4899774;29;20115;-66
2022/01/28 07:30:26;;;;;;;21.55;4.38;;;4.80;99.90;;;;;;4901017;29;20653;-65
2022/01/28 07:32:52;;;;;;;27.40;3.40;;;4.70;99.90;;;;;;4901421;29;20060;-65
2022/01/28 07:35:18;;;;;;;23.95;5.10;;;4.70;99.90;;;;;;4902503;29;20043;-65
2022/01/28 07:37:43;;;;;;;30.13;4.10;;;4.70;99.90;;;;;;4894116;29;20032;-64
2022/01/28 07:40:09;;;;;;;24.05;3.50;;;4.70;99.90;;;;;;4899729;29;20032;-64
2022/01/28 07:42:36;;;;;;;40.30;5.07;;;4.60;99.90;;;;;;4899031;29;20044;-65
2022/01/28 07:45:01;;;;;;;25.85;4.75;;;4.60;99.90;;;;;;4900161;29;20058;-65
2022/01/28 07:47:27;;;;;;;23.92;3.20;;;4.60;99.90;;;;;;4894695;29;20556;-65
2022/01/28 07:49:52;;;;;;;17.70;3.10;;;4.60;99.90;;;;;;4886227;29;20043;-63
2022/01/28 07:52:18;;;;;;;34.78;4.50;;;4.60;99.90;;;;;;4897451;29;20143;-64
2022/01/28 07:54:48;;;;;;;44.22;4.78;;;4.60;99.90;;;;;;4900125;29;20036;-65
2022/01/28 07:57:13;;;;;;;32.90;4.22;;;4.50;99.90;;;;;;4900200;29;20403;-65
2022/01/28 07:59:39;;;;;;;19.65;2.88;;;4.60;99.90;;;;;;4898939;29;20036;-64
2022/01/28 08:02:04;;;;;;;27.42;4.80;;;4.50;99.90;;;;;;4898126;29;20039;-65
2022/01/28 08:04:30;;;;;;;24.50;3.75;;;4.50;99.90;;;;;;4900621;29;20032;-65
2022/01/28 08:06:55;;;;;;;28.48;3.35;;;4.50;99.90;;;;;;4900365;29;20036;-64
2022/01/28 08:09:21;;;;;;;27.25;3.97;;;4.50;99.90;;;;;;4896277;29;20886;-64
2022/01/28 08:11:46;;;;;;;24.15;3.67;;;4.50;99.90;;;;;;4900197;29;20037;-64
2022/01/28 08:14:13;;;;;;;40.30;4.60;;;4.50;99.90;;;;;;4903502;29;20743;-64
2022/01/28 08:16:39;;;;;;;22.20;3.65;;;4.40;99.90;;;;;;4898231;29;20150;-64
2022/01/28 08:19:04;;;;;;;32.00;4.07;;;4.40;99.90;;;;;;4900928;29;20171;-64
2022/01/28 08:21:30;;;;;;;20.58;3.80;;;4.40;99.90;;;;;;4897481;29;20416;-65
2022/01/28 08:23:55;;;;;;;20.23;3.08;;;4.40;99.90;;;;;;4899101;29;20063;-64
2022/01/28 08:26:21;;;;;;;27.23;3.65;;;4.50;99.90;;;;;;4897110;29;20036;-63
2022/01/28 08:28:47;;;;;;;26.48;3.72;;;4.60;99.90;;;;;;4898750;29;20037;-64
2022/01/28 08:31:13;;;;;;;22.75;3.00;;;4.70;99.90;;;;;;4882169;29;20043;-63
2022/01/28 08:33:38;;;;;;;27.73;3.97;;;4.70;99.90;;;;;;4881689;29;20099;-63
2022/01/28 08:36:04;;;;;;;24.90;3.67;;;4.80;99.90;;;;;;4896054;29;20522;-64
2022/01/28 08:38:35;;;;;;;22.38;3.67;;;4.90;99.90;;;;;;4899992;29;20044;-64
2022/01/28 08:41:01;;;;;;;22.52;3.15;;;4.90;99.90;;;;;;4897708;29;20035;-64
2022/01/28 08:43:27;;;;;;;27.98;3.70;;;4.90;99.90;;;;;;4898217;29;20040;-64
2022/01/28 08:45:52;;;;;;;22.08;4.18;;;5.00;99.90;;;;;;4898860;29;20034;-64
2022/01/28 08:48:18;;;;;;;23.45;3.95;;;5.10;99.90;;;;;;4895867;29;20028;-64
2022/01/28 08:50:43;;;;;;;28.13;4.32;;;5.20;99.90;;;;;;4894652;29;20032;-65
2022/01/28 08:53:09;;;;;;;33.47;4.32;;;5.30;99.90;;;;;;4895648;29;20039;-64
2022/01/28 08:55:34;;;;;;;21.98;3.38;;;5.40;99.90;;;;;;4896243;29;20044;-64
2022/01/28 08:58:00;;;;;;;26.85;3.58;;;5.50;99.90;;;;;;4900301;29;20135;-64
2022/01/28 09:00:25;;;;;;;31.95;3.88;;;5.60;99.90;;;;;;4896579;29;20064;-64
2022/01/28 09:02:51;;;;;;;22.08;3.80;;;5.60;99.90;;;;;;4900331;29;20070;-64
2022/01/28 09:05:16;;;;;;;33.75;3.42;;;5.60;99.90;;;;;;4896146;29;20040;-64
2022/01/28 09:07:42;;;;;;;26.92;4.15;;;5.60;99.90;;;;;;4899683;29;20039;-64
2022/01/28 09:10:17;;;;;;;21.33;3.50;;;5.60;99.90;;;;;;4900162;29;20119;-64
2022/01/28 09:13:10;;;;;;;29.13;3.95;;;5.50;99.90;;;;;;4898633;29;20039;-65
2022/01/28 09:15:34;;;;;;;25.23;4.18;;;5.50;99.90;;;;;;4898735;29;20047;-64
2022/01/28 09:18:00;;;;;;;21.13;2.95;;;5.70;99.90;;;;;;4901195;29;20743;-64
2022/01/28 09:20:25;;;;;;;32.25;3.42;;;5.80;99.90;;;;;;4902769;29;20079;-65
2022/01/28 09:22:51;;;;;;;25.00;3.00;;;5.90;99.90;;;;;;4900123;29;20039;-64
2022/01/28 09:25:16;;;;;;;24.48;3.55;;;5.90;99.90;;;;;;4900428;29;20111;-64
2022/01/28 09:27:42;;;;;;;21.20;3.17;;;6.00;99.90;;;;;;4896980;29;20033;-64
2022/01/28 09:30:07;;;;;;;21.75;3.35;;;6.00;99.90;;;;;;4903473;29;20031;-64
2022/01/28 09:32:33;;;;;;;28.05;3.72;;;6.00;99.90;;;;;;4898239;29;20054;-64
2022/01/28 09:34:58;;;;;;;28.35;4.50;;;5.90;99.90;;;;;;4897558;29;20126;-65
2022/01/28 09:37:24;;;;;;;23.38;5.47;;;5.90;99.90;;;;;;4900886;29;20036;-64
2022/01/28 09:39:49;;;;;;;27.90;3.60;;;5.90;99.90;;;;;;4899304;29;20727;-64
2022/01/28 09:42:16;;;;;;;32.33;4.30;;;5.90;99.90;;;;;;4902013;29;20755;-64
2022/01/28 09:44:42;;;;;;;26.08;4.00;;;6.00;99.90;;;;;;4880810;29;20047;-64
2022/01/28 09:47:07;;;;;;;24.73;3.70;;;6.30;99.90;;;;;;4885040;29;20059;-65
2022/01/28 09:49:33;;;;;;;22.95;3.20;;;6.40;99.90;;;;;;4901211;29;20787;-64
2022/01/28 09:51:58;;;;;;;23.35;3.22;;;6.50;99.90;;;;;;4898179;29;20025;-64
2022/01/28 09:54:24;;;;;;;32.22;5.88;;;6.20;99.90;;;;;;4900292;29;20088;-64
2022/01/28 09:56:49;;;;;;;27.58;4.45;;;6.10;99.90;;;;;;4901698;29;20063;-64
2022/01/28 09:59:15;;;;;;;25.25;4.05;;;6.10;99.90;;;;;;4896133;29;20513;-64
2022/01/28 10:01:40;;;;;;;34.58;4.53;;;6.10;99.90;;;;;;4895614;29;20925;-64
2022/01/28 10:04:07;;;;;;;28.58;4.22;;;6.10;99.90;;;;;;4904171;29;20036;-64
2022/01/28 10:06:33;;;;;;;25.65;3.45;;;6.10;99.90;;;;;;4899255;29;20036;-65
2022/01/28 10:09:01;;;;;;;33.88;6.47;;;6.00;99.90;;;;;;4899216;29;20076;-64
2022/01/28 10:11:27;;;;;;;25.23;3.83;;;5.90;99.90;;;;;;4895568;29;20055;-65
2022/01/28 10:13:56;;;;;;;29.13;3.80;;;6.00;99.90;;;;;;4897515;29;20027;-64
2022/01/28 10:16:22;;;;;;;33.85;3.97;;;6.00;99.90;;;;;;4896934;29;20115;-65
2022/01/28 10:18:48;;;;;;;25.50;3.38;;;6.10;99.90;;;;;;4897934;29;20037;-65
2022/01/28 10:21:13;;;;;;;33.70;5.43;;;6.00;99.90;;;;;;4895130;29;20583;-65
2022/01/28 10:23:39;;;;;;;31.10;3.78;;;5.90;99.90;;;;;;4899362;29;20652;-65
2022/01/28 10:26:04;;;;;;;32.47;5.22;;;5.90;99.90;;;;;;4901949;29;20024;-65
2022/01/28 10:28:33;;;;;;;30.17;4.05;;;5.80;99.90;;;;;;4900711;29;20028;-64
2022/01/28 10:30:58;;;;;;;25.15;3.30;;;6.00;99.90;;;;;;4898830;29;20039;-65
2022/01/28 10:33:24;;;;;;;28.15;3.17;;;6.20;99.90;;;;;;4895948;29;20032;-64
2022/01/28 10:35:49;;;;;;;27.25;3.53;;;6.50;99.90;;;;;;4891838;29;20111;-64
2022/01/28 10:38:15;;;;;;;30.00;3.28;;;6.60;99.90;;;;;;4899359;29;20036;-65
2022/01/28 10:40:40;;;;;;;21.80;3.78;;;6.90;99.90;;;;;;4901007;29;20126;-65
2022/01/28 10:43:06;;;;;;;32.42;3.45;;;6.90;99.90;;;;;;4898946;29;20764;-65
2022/01/28 10:45:32;;;;;;;26.30;3.95;;;6.90;99.90;;;;;;4900441;29;20052;-64
2022/01/28 10:47:57;;;;;;;24.20;3.13;;;7.10;99.90;;;;;;4898807;29;20033;-64
2022/01/28 10:50:23;;;;;;;29.15;3.28;;;7.20;99.90;;;;;;4897730;29;20036;-65
2022/01/28 10:52:48;;;;;;;27.00;5.45;;;7.20;99.90;;;;;;4915302;29;20027;-65
2022/01/28 10:55:14;;;;;;;22.58;5.45;;;7.20;99.90;;;;;;4897901;29;20038;-65
2022/01/28 10:57:39;;;;;;;33.58;10.68;;;7.20;99.90;;;;;;4895443;29;20043;-65
2022/01/28 11:00:05;;;;;;;26.27;4.20;;;7.30;99.90;;;;;;4897370;29;20062;-65
2022/01/28 11:02:30;;;;;;;27.23;3.83;;;7.50;99.90;;;;;;4898078;29;20476;-65
2022/01/28 11:04:57;;;;;;;25.08;2.83;;;7.40;99.90;;;;;;4898758;29;20040;-65
2022/01/28 11:07:22;;;;;;;22.60;3.75;;;7.50;99.90;;;;;;4899535;29;20567;-65
2022/01/28 11:09:49;;;;;;;24.27;4.30;;;7.70;99.90;;;;;;4897938;29;20059;-63
2022/01/28 11:12:14;;;;;;;22.15;3.83;;;7.70;99.90;;;;;;4891339;29;20028;-63
2022/01/28 11:14:40;;;;;;;29.00;4.65;;;7.90;99.90;;;;;;4897853;29;20036;-63
2022/01/28 11:17:05;;;;;;;19.63;4.18;;;7.80;99.90;;;;;;4901920;29;20055;-63
2022/01/28 11:19:31;;;;;;;20.45;3.50;;;7.70;99.90;;;;;;4889763;29;20045;-65
2022/01/28 11:21:56;;;;;;;25.58;3.67;;;7.80;99.90;;;;;;4892569;29;20067;-65
2022/01/28 11:24:22;;;;;;;27.77;3.45;;;7.80;99.90;;;;;;4900103;29;20047;-66
2022/01/28 11:26:47;;;;;;;21.75;3.30;;;8.00;99.90;;;;;;4899714;29;20078;-66
2022/01/28 11:29:13;;;;;;;21.17;5.85;;;8.10;99.90;;;;;;4898682;29;20067;-66
2022/01/28 11:31:38;;;;;;;19.17;3.83;;;8.00;99.90;;;;;;4899479;29;20121;-66
2022/01/28 11:34:04;;;;;;;28.80;3.90;;;7.80;99.90;;;;;;4893017;29;20036;-65
2022/01/28 11:36:30;;;;;;;26.65;3.13;;;7.80;99.90;;;;;;4899763;29;20032;-66
2022/01/28 11:38:56;;;;;;;32.65;3.80;;;7.80;99.90;;;;;;4900733;29;20508;-66
2022/01/28 11:41:21;;;;;;;26.55;2.95;;;7.70;99.90;;;;;;4893179;29;20047;-65
2022/01/28 11:43:47;;;;;;;19.88;4.18;;;7.80;99.90;;;;;;4890148;29;20425;-66
2022/01/28 11:46:12;;;;;;;22.17;4.25;;;8.00;99.90;;;;;;4894153;29;20116;-65
2022/01/28 11:48:38;;;;;;;28.52;3.63;;;8.20;99.90;;;;;;4897530;29;20036;-65
2022/01/28 11:51:03;;;;;;;18.15;4.10;;;8.50;99.90;;;;;;4902678;29;20067;-66
2022/01/28 11:53:29;;;;;;;16.50;2.45;;;8.50;99.90;;;;;;4898560;29;20032;-66
2022/01/28 11:55:54;;;;;;;21.05;3.05;;;8.10;99.90;;;;;;4897032;29;20732;-65
2022/01/28 11:58:20;;;;;;;18.15;3.70;;;7.70;99.90;;;;;;4895639;29;20135;-65
2022/01/28 12:00:45;;;;;;;26.48;3.90;;;7.60;99.90;;;;;;4892052;29;20767;-65
2022/01/28 12:03:11;;;;;;;21.27;3.00;;;7.50;99.90;;;;;;4899155;29;20093;-65
2022/01/28 12:05:36;;;;;;;17.15;2.67;;;7.50;99.90;;;;;;4895791;29;20127;-67
2022/01/28 12:08:03;;;;;;;18.13;2.92;;;7.40;99.90;;;;;;4891800;29;20021;-65
2022/01/28 12:10:30;;;;;;;29.33;5.82;;;7.40;99.90;;;;;;4894631;29;20091;-65
2022/01/28 12:13:00;;;;;;;22.27;3.90;;;7.40;99.90;;;;;;4902586;29;20047;-66
2022/01/28 12:15:26;;;;;;;23.95;4.05;;;7.40;99.90;;;;;;4898333;29;20782;-65
2022/01/28 12:17:51;;;;;;;32.75;3.75;;;7.20;99.90;;;;;;4895839;29;20035;-66
2022/01/28 12:20:22;;;;;;;27.90;7.15;;;7.10;99.90;;;;;;4895978;29;20707;-65
2022/01/28 12:22:48;;;;;;;21.25;4.40;;;6.90;99.90;;;;;;4893462;29;20047;-65
2022/01/28 12:25:13;;;;;;;26.42;3.72;;;6.90;99.90;;;;;;4898184;29;20032;-66
2022/01/28 12:27:38;;;;;;;24.58;3.17;;;6.90;99.90;;;;;;4890579;29;20079;-65
2022/01/28 12:30:04;;;;;;;19.55;2.40;;;6.90;99.90;;;;;;4896931;29;20024;-65
2022/01/28 12:32:29;;;;;;;21.73;3.60;;;6.80;99.90;;;;;;4897702;29;20036;-65
2022/01/28 12:34:55;;;;;;;16.83;2.30;;;7.10;99.90;;;;;;4897792;29;20114;-65
2022/01/28 12:37:23;;;;;;;16.35;2.70;;;7.40;99.90;;;;;;4884588;29;20040;-65
2022/01/28 12:39:55;;;;;;;18.65;2.35;;;7.80;99.90;;;;;;4894642;29;20128;-65
2022/01/28 12:44:46;;;;;;;13.02;2.10;;;8.20;99.90;;;;;;4900445;29;20040;-65
2022/01/28 12:47:11;;;;;;;15.50;2.75;;;8.50;99.90;;;;;;4894940;29;20031;-66
2022/01/28 12:49:37;;;;;;;15.77;2.88;;;8.70;99.90;;;;;;4894180;29;20045;-65
2022/01/28 12:52:02;;;;;;;15.50;3.10;;;9.20;99.90;;;;;;4896353;29;20924;-66
2022/01/28 12:54:28;;;;;;;13.38;2.28;;;;;;;;;;4898551;29;20090;-65
2022/01/28 12:56:57;;;;;;;14.13;2.17;;;9.30;99.90;;;;;;4896452;29;20028;-65
2022/01/28 12:59:23;;;;;;;14.57;2.15;;;8.70;99.90;;;;;;4900113;29;20672;-65
2022/01/28 13:01:49;;;;;;;15.52;4.35;;;;;;;;;;4905281;29;20032;-65
2022/01/28 13:04:17;;;;;;;18.88;3.17;;;;;;;;;;4903391;29;20044;-65
2022/01/28 13:07:01;;;;;;;17.48;2.15;;;;;;;;;;4901870;29;20480;-70
2022/01/28 13:09:27;;;;;;;17.02;3.13;;;;;;;;;;4899189;29;20044;-70
2022/01/28 13:11:53;;;;;;;16.83;2.40;;;;;;;;;;4901859;29;20024;-70
2022/01/28 13:14:19;;;;;;;13.13;2.20;;;;;;;;;;4900262;29;20509;-69
2022/01/28 13:16:45;;;;;;;12.55;2.22;;;;;;;;;;4897399;29;20124;-69
2022/01/28 13:19:11;;;;;;;13.02;2.30;;;;;;;;;;4891935;29;20972;-69
2022/01/28 13:21:37;;;;;;;17.23;2.95;;;;;;;;;;4893954;29;20036;-69
2022/01/28 13:24:03;;;;;;;14.50;2.28;;;;;;;;;;4896059;29;20100;-69
2022/01/28 13:26:29;;;;;;;19.42;2.58;;;;;;;;;;4876271;29;20029;-69
2022/01/28 13:28:55;;;;;;;15.07;2.40;;;;;;;;;;4898474;29;20039;-66
2022/01/28 13:31:21;;;;;;;15.50;2.22;;;;;;;;;;4895462;29;20559;-68
2022/01/28 13:33:47;;;;;;;14.18;2.33;;;;;;;;;;4899760;29;20436;-68
2022/01/28 13:36:13;;;;;;;17.88;2.83;;;;;;;;;;4898353;29;20024;-68
2022/01/28 13:38:40;;;;;;;16.27;2.55;;;;;;;;;;4895658;29;20046;-68
2022/01/28 13:41:06;;;;;;;13.18;1.75;;;;;;;;;;4900046;29;20813;-68
2022/01/28 13:43:31;;;;;;;12.02;2.30;;;8.00;99.90;;;;;;4896434;29;20049;-69
2022/01/28 13:46:03;;;;;;;10.98;2.25;;;;;;;;;;4891934;29;20040;-67
2022/01/28 13:48:29;;;;;;;16.33;2.65;;;8.70;99.90;;;;;;4900190;29;20037;-68
2022/01/28 13:50:55;;;;;;;16.77;2.78;;;;;;;;;;4892817;29;20044;-68
2022/01/28 13:55:53;;;;;;;19.05;2.42;;;;;;;;;;4899830;29;20535;-68
2022/01/28 13:58:19;;;;;;;14.60;2.25;;;8.30;99.90;;;;;;4899924;29;20036;-68
2022/01/28 14:00:45;;;;;;;32.75;4.28;;;;;;;;;;4897172;29;20515;-68
2022/01/28 14:03:11;;;;;;;17.40;3.60;;;;;;;;;;4895327;29;20597;-68
2022/01/28 14:05:37;;;;;;;16.40;2.40;;;;;;;;;;4902496;29;20040;-67
2022/01/28 14:08:03;;;;;;;20.38;3.80;;;;;;;;;;4894525;29;20032;-68
2022/01/28 14:10:28;;;;;;;11.88;1.50;;;8.50;99.90;;;;;;4898133;29;20052;-68
2022/01/28 14:12:56;;;;;;;14.63;2.20;;;;;;;;;;4895283;29;20035;-69
2022/01/28 14:15:34;;;;;;;8.50;2.08;;;8.60;99.90;;;;;;4895526;29;20045;-68
2022/01/28 14:18:03;;;;;;;12.07;1.88;;;8.40;99.90;;;;;;4900416;29;20473;-68
2022/01/28 14:20:28;;;;;;;14.70;2.60;;;8.30;99.90;;;;;;4897805;29;20036;-68
2022/01/28 14:22:53;;;;;;;12.40;1.90;;;7.70;99.90;;;;;;4900211;29;20043;-68
2022/01/28 14:25:21;;;;;;;14.57;1.80;;;;;;;;;;4898878;29;20538;-68
2022/01/28 14:28:00;;;;;;;9.18;2.22;;;;;;;;;;4897969;29;20036;-67
2022/01/28 14:30:40;;;;;;;10.95;2.47;;;7.30;99.90;;;;;;4895333;29;20040;-68
2022/01/28 14:33:07;;;;;;;12.55;1.98;;;7.20;99.90;;;;;;4890522;29;20032;-67
2022/01/28 14:35:32;;;;;;;10.50;1.83;;;6.60;99.90;;;;;;4889262;29;20072;-67
2022/01/28 14:37:58;;;;;;;12.38;1.80;;;6.90;99.90;;;;;;4889539;29;20124;-67
2022/01/28 14:40:23;;;;;;;11.45;2.08;;;6.90;99.90;;;;;;4903336;29;20040;-67
2022/01/28 14:42:49;;;;;;;11.52;1.70;;;6.80;99.90;;;;;;4902180;29;20151;-68
2022/01/28 14:45:14;;;;;;;12.05;1.92;;;7.70;99.90;;;;;;4900998;29;20032;-68
2022/01/28 14:47:40;;;;;;;10.32;1.90;;;7.70;99.90;;;;;;4896615;29;20037;-67
2022/01/28 14:50:05;;;;;;;12.32;2.17;;;7.80;99.90;;;;;;4900209;29;20032;-67
2022/01/28 14:52:31;;;;;;;15.32;2.65;;;7.40;99.90;;;;;;4900060;29;20563;-68
2022/01/28 14:54:57;;;;;;;13.02;2.70;;;;;;;;;;4901416;29;20032;-68
2022/01/28 14:57:23;;;;;;;10.35;2.00;;;7.10;99.90;;;;;;4892516;29;20832;-68
2022/01/28 14:59:48;;;;;;;11.98;2.28;;;6.80;99.90;;;;;;4898018;29;20047;-67
2022/01/28 15:02:14;;;;;;;12.35;2.13;;;6.70;99.90;;;;;;4898032;29;20134;-68
2022/01/28 15:04:39;;;;;;;7.20;1.58;;;6.50;99.90;;;;;;4903258;29;20047;-68
2022/01/28 15:07:05;;;;;;;18.23;2.85;;;6.40;99.90;;;;;;4898655;29;20751;-67
2022/01/28 15:09:31;;;;;;;16.63;2.83;;;6.30;99.90;;;;;;4900815;29;20036;-67
2022/01/28 15:11:57;;;;;;;16.00;2.78;;;6.20;99.90;;;;;;4897793;29;20038;-67
2022/01/28 15:14:22;;;;;;;21.25;3.78;;;5.90;99.90;;;;;;4896883;29;20092;-68
2022/01/28 15:16:48;;;;;;;14.85;2.17;;;5.70;99.90;;;;;;4899511;29;20039;-68
2022/01/28 15:19:13;;;;;;;13.05;2.30;;;5.70;99.90;;;;;;4898588;29;20488;-68
2022/01/28 15:21:39;;;;;;;13.00;2.38;;;5.60;99.90;;;;;;4898033;29;20051;-68
2022/01/28 15:24:04;;;;;;;13.50;2.05;;;5.50;99.90;;;;;;4900730;29;20039;-68
2022/01/28 15:26:30;;;;;;;16.65;2.60;;;5.50;99.90;;;;;;4898850;29;20039;-68
2022/01/28 15:29:02;;;;;;;14.82;2.47;;;5.30;99.90;;;;;;4892596;29;20103;-68
2022/01/28 15:34:15;;;;;;;24.00;3.38;;;5.10;99.90;;;;;;4898029;29;20119;-68
2022/01/28 15:36:40;;;;;;;20.35;2.75;;;5.00;99.90;;;;;;4898135;29;20071;-68
2022/01/28 15:39:06;;;;;;;14.35;4.13;;;4.90;99.90;;;;;;4874708;29;20130;-68
2022/01/28 15:41:31;;;;;;;20.65;5.57;;;4.80;99.90;;;;;;4905534;29;20040;-68
2022/01/28 15:43:57;;;;;;;13.50;2.90;;;4.70;99.90;;;;;;4915577;29;20054;-68
2022/01/28 15:46:22;;;;;;;20.67;2.67;;;4.60;99.90;;;;;;4920666;29;20083;-68
2022/01/28 15:48:48;;;;;;;23.20;7.50;;;4.60;99.90;;;;;;4906504;29;20634;-68
2022/01/28 15:51:13;;;;;;;12.82;2.97;;;4.50;99.90;;;;;;4912674;29;20623;-68
2022/01/28 15:53:39;;;;;;;13.70;2.13;;;4.50;99.90;;;;;;4911574;29;20032;-69
2022/01/28 15:56:04;;;;;;;18.63;2.92;;;4.40;99.90;;;;;;4913273;29;20023;-68
2022/01/28 15:58:30;;;;;;;13.40;2.42;;;4.40;99.90;;;;;;4916567;29;20563;-69
2022/01/28 16:00:55;;;;;;;15.23;2.13;;;4.30;99.90;;;;;;4915410;29;20041;-68
2022/01/28 16:03:21;;;;;;;17.23;2.58;;;4.30;99.90;;;;;;4920106;29;20392;-69
2022/01/28 16:05:46;;;;;;;17.17;2.65;;;4.30;99.90;;;;;;4914976;29;20054;-67
2022/01/28 16:08:12;;;;;;;14.05;2.40;;;4.20;99.90;;;;;;4919489;29;20028;-68
2022/01/28 16:10:46;;;;;;;14.30;2.05;;;4.20;99.90;;;;;;4911481;29;20058;-68
2022/01/28 16:18:02;;;;;;;21.58;2.47;;;4.10;99.90;;;;;;4912571;29;20028;-68
2022/01/28 16:20:28;;;;;;;13.02;2.13;;;4.10;99.90;;;;;;4912940;29;20504;-68
2022/01/28 16:22:53;;;;;;;19.38;2.75;;;4.00;99.90;;;;;;4909437;29;20039;-68
2022/01/28 16:25:19;;;;;;;14.10;2.00;;;4.00;99.90;;;;;;4913883;29;20044;-68
2022/01/28 16:27:44;;;;;;;21.55;4.35;;;4.00;99.90;;;;;;4914071;29;20569;-63
2022/01/28 16:30:10;;;;;;;15.10;2.55;;;4.00;99.90;;;;;;4915320;29;20039;-64
2022/01/28 16:32:35;;;;;;;15.95;3.13;;;4.00;99.90;;;;;;4916002;29;20031;-64
2022/01/28 16:35:01;;;;;;;14.90;2.78;;;4.00;99.90;;;;;;4915638;29;20135;-68
2022/01/28 16:37:26;;;;;;;17.40;3.35;;;3.90;99.90;;;;;;4913242;29;20665;-68
2022/01/28 16:39:53;;;;;;;15.48;2.95;;;3.90;99.90;;;;;;4907358;29;20055;-68
2022/01/28 16:42:36;;;;;;;12.45;2.35;;;3.90;99.90;;;;;;4915933;29;20055;-68
2022/01/28 16:45:02;;;;;;;18.42;3.90;;;3.90;99.90;;;;;;4917287;29;20040;-68
2022/01/28 16:47:27;;;;;;;16.25;3.55;;;3.80;99.90;;;;;;4918620;29;20039;-68
2022/01/28 16:49:53;;;;;;;20.58;2.60;;;3.80;99.90;;;;;;4918339;29;20592;-69
2022/01/28 16:52:18;;;;;;;13.73;2.47;;;3.90;99.90;;;;;;4917061;29;20044;-69
2022/01/28 16:54:44;;;;;;;20.65;4.55;;;3.80;99.90;;;;;;4918416;29;20032;-69
2022/01/28 16:57:09;;;;;;;71.43;24.58;;;3.80;99.90;;;;;;4917063;29;20083;-68
2022/01/28 16:59:36;;;;;;;26.92;9.18;;;3.80;99.90;;;;;;4916960;29;20040;-69
2022/01/28 17:02:02;;;;;;;25.13;4.65;;;3.80;99.90;;;;;;4913496;29;20037;-69
2022/01/28 17:04:27;;;;;;;18.58;6.07;;;3.80;99.90;;;;;;4916362;29;20039;-69
2022/01/28 17:06:53;;;;;;;29.15;5.13;;;3.80;99.90;;;;;;4909381;29;20036;-69
2022/01/28 17:09:25;;;;;;;41.58;13.60;;;3.70;99.90;;;;;;4909510;29;20082;-69
2022/01/28 17:12:05;;;;;;;20.83;6.05;;;3.70;99.90;;;;;;4907571;29;20075;-68
2022/01/28 17:14:31;;;;;;;27.73;6.30;;;3.70;99.90;;;;;;4918121;29;20123;-69
2022/01/28 17:16:56;;;;;;;34.13;6.30;;;3.70;99.90;;;;;;4917764;29;20130;-69
2022/01/28 17:19:22;;;;;;;16.58;3.58;;;3.70;99.90;;;;;;4916490;29;20036;-69
2022/01/28 17:21:47;;;;;;;19.13;3.45;;;3.60;99.90;;;;;;4918406;29;20779;-69
2022/01/28 17:24:13;;;;;;;13.48;3.15;;;3.60;99.90;;;;;;4918517;29;20475;-69
2022/01/28 17:26:38;;;;;;;17.92;2.85;;;3.70;99.90;;;;;;4903722;29;20028;-69
2022/01/28 17:29:04;;;;;;;11.55;2.30;;;3.70;99.90;;;;;;4912224;29;20028;-68
2022/01/28 17:31:30;;;;;;;22.10;3.45;;;3.60;99.90;;;;;;4913435;29;20035;-68
2022/01/28 17:33:55;;;;;;;20.55;3.15;;;3.60;99.90;;;;;;4921412;29;20036;-69
2022/01/28 17:36:21;;;;;;;26.83;3.80;;;3.60;99.90;;;;;;4911706;29;20038;-69
2022/01/28 17:38:46;;;;;;;30.40;4.85;;;3.60;99.90;;;;;;4915913;29;20520;-69
2022/01/28 17:41:12;;;;;;;22.33;3.28;;;3.60;99.90;;;;;;4918897;29;20056;-69